createdAt,value
2019-02-09T00:01:00.553Z,99888.91
2019-02-09T00:03:57.181Z,99874.48
2019-02-09T00:06:42.622Z,99894.13
2019-02-09T00:12:44.430Z,99882.62
2019-02-09T00:21:51.058Z,99898.88
2019-02-09T00:24:27.756Z,99889.48
2019-02-09T00:27:12.773Z,99871.65
2019-02-09T00:32:49.619Z,99885.40
2019-02-09T00:38:39.928Z,99868.00
2019-02-09T00:41:22.286Z,99830.66
2019-02-09T00:44:11.989Z,99859.55
2019-02-09T00:46:54.453Z,99816.03
2019-02-09T00:49:44.484Z,99822.05
2019-02-09T00:52:26.682Z,99811.70
2019-02-09T00:54:57.020Z,99832.62
2019-02-09T00:57:46.386Z,99808.91
2019-02-09T01:00:37.407Z,99818.02
2019-02-09T01:03:19.224Z,99813.72
2019-02-09T01:06:08.931Z,99830.55
2019-02-09T01:08:51.458Z,99799.09
2019-02-09T01:11:22.886Z,99846.47
2019-02-09T01:14:12.494Z,99810.03
2019-02-09T01:19:50.015Z,99829.69
2019-02-09T01:22:39.886Z,99787.61
2019-02-09T01:25:22.109Z,99780.03
2019-02-09T01:28:12.423Z,99808.44
2019-02-09T01:30:53.938Z,99778.83
2019-02-09T01:33:43.855Z,99777.59
2019-02-09T01:36:27.575Z,99779.34
2019-02-09T01:38:57.920Z,99791.28
2019-02-09T01:41:47.806Z,99761.67
2019-02-09T01:44:30.240Z,99764.45
2019-02-09T01:47:19.818Z,99771.06
2019-02-09T01:50:01.925Z,99760.95
2019-02-09T01:52:51.479Z,99775.88
2019-02-09T01:55:33.788Z,99744.94
2019-02-09T01:58:04.039Z,99781.66
2019-02-09T02:00:53.489Z,99774.40
2019-02-09T02:06:43.716Z,99738.80
2019-02-09T02:09:13.971Z,99770.75
2019-02-09T02:17:48.011Z,99726.66
2019-02-09T02:20:37.370Z,99750.37
2019-02-09T02:23:19.978Z,99717.97
2019-02-09T02:26:03.049Z,99716.98
2019-02-09T02:28:52.723Z,99705.62
2019-02-09T02:31:34.643Z,99714.52
2019-02-09T02:34:43.410Z,99706.47
2019-02-09T02:37:25.424Z,99684.05
2019-02-09T02:40:15.261Z,99680.05
2019-02-09T02:42:57.439Z,99703.35
2019-02-09T02:45:47.021Z,99684.38
2019-02-09T02:48:29.652Z,99696.45
2019-02-09T02:51:19.316Z,99687.05
2019-02-09T02:54:01.415Z,99646.15
2019-02-09T02:57:10.477Z,99685.73
2019-02-09T02:59:53.138Z,99650.08
2019-02-09T03:02:42.791Z,99638.02
2019-02-09T03:05:24.794Z,99649.55
2019-02-09T03:08:14.646Z,99681.11
2019-02-09T03:10:57.277Z,99689.88
2019-02-09T03:13:46.855Z,99680.16
2019-02-09T03:16:29.845Z,99687.41
2019-02-09T03:22:20.965Z,99656.25
2019-02-09T03:25:12.859Z,99653.91
2019-02-09T03:27:54.827Z,99643.52
2019-02-09T03:34:12.236Z,99639.58
2019-02-09T03:39:57.077Z,99641.16
2019-02-09T03:42:28.381Z,99667.20
2019-02-09T03:45:36.845Z,99633.89
2019-02-09T03:48:18.521Z,99632.27
2019-02-09T03:50:48.855Z,99665.53
2019-02-09T03:53:38.224Z,99623.72
2019-02-09T03:56:29.487Z,99605.67
2019-02-09T03:59:11.884Z,99619.77
2019-02-09T04:02:21.222Z,99615.86
2019-02-09T04:05:04.066Z,99622.25
2019-02-09T04:07:53.457Z,99623.62
2019-02-09T04:10:43.076Z,99659.22
2019-02-09T04:13:32.505Z,99620.94
2019-02-09T04:16:14.638Z,99652.39
2019-02-09T04:21:52.114Z,99638.11
2019-02-09T04:27:30.166Z,99616.64
2019-02-09T04:30:00.564Z,99638.59
2019-02-09T04:35:44.684Z,99606.85
2019-02-09T04:38:26.826Z,99607.91
2019-02-09T04:44:03.858Z,99634.63
2019-02-09T04:49:40.729Z,99602.63
2019-02-09T04:52:49.671Z,99602.71
2019-02-09T04:55:31.561Z,99634.36
2019-02-09T05:01:13.962Z,99586.26
2019-02-09T05:04:01.429Z,99593.28
2019-02-09T05:09:51.795Z,99602.30
2019-02-09T05:12:41.427Z,99623.80
2019-02-09T05:15:23.370Z,99586.21
2019-02-09T05:18:12.986Z,99585.75
2019-02-09T05:20:55.469Z,99621.18
2019-02-09T05:24:04.501Z,99580.27
2019-02-09T05:26:53.945Z,99602.34
2019-02-09T05:29:40.369Z,99577.23
2019-02-09T05:32:22.613Z,99622.69
2019-02-09T05:38:13.482Z,99644.36
2019-02-09T05:41:03.027Z,99646.12
2019-02-09T05:43:45.540Z,99644.96
2019-02-09T05:46:27.549Z,99621.98
2019-02-09T05:49:10.260Z,99650.81
2019-02-09T05:51:59.618Z,99655.83
2019-02-09T05:54:41.740Z,99656.58
2019-02-09T05:57:31.235Z,99608.89
2019-02-09T06:00:14.944Z,99614.61
2019-02-09T06:06:05.450Z,99644.17
2019-02-09T06:08:35.983Z,99640.13
2019-02-09T06:11:06.557Z,99641.27
2019-02-09T06:13:56.185Z,99615.00
2019-02-09T06:16:26.902Z,99649.22
2019-02-09T06:18:57.425Z,99648.72
2019-02-09T06:21:47.407Z,99643.16
2019-02-09T06:24:37.131Z,99646.45
2019-02-09T06:27:07.615Z,99653.61
2019-02-09T06:29:50.371Z,99626.58
2019-02-09T06:32:40.056Z,99631.89
2019-02-09T06:35:22.493Z,99631.42
2019-02-09T06:40:59.102Z,99670.36
2019-02-09T06:46:49.508Z,99646.96
2019-02-09T06:49:31.579Z,99674.19
2019-02-09T06:55:09.872Z,99661.63
2019-02-09T06:57:59.251Z,99667.48
2019-02-09T07:00:41.204Z,99645.69
2019-02-09T07:03:49.879Z,99681.72
2019-02-09T07:06:31.701Z,99655.67
2019-02-09T07:12:09.150Z,99646.95
2019-02-09T07:14:58.471Z,99682.56
2019-02-09T07:17:40.836Z,99647.02
2019-02-09T07:20:30.108Z,99664.23
2019-02-09T07:23:12.522Z,99661.06
2019-02-09T07:25:54.930Z,99696.78
2019-02-09T07:28:37.390Z,99671.58
2019-02-09T07:34:14.905Z,99711.76
2019-02-09T07:39:34.420Z,99709.89
2019-02-09T07:42:23.784Z,99723.34
2019-02-09T07:45:06.853Z,99711.41
2019-02-09T07:47:56.193Z,99686.89
2019-02-09T07:50:38.509Z,99683.11
2019-02-09T07:53:27.859Z,99688.73
2019-02-09T07:56:09.764Z,99726.29
2019-02-09T07:58:59.119Z,99696.18
2019-02-09T08:01:41.162Z,99704.88
2019-02-09T08:04:30.512Z,99692.48
2019-02-09T08:07:12.353Z,99701.96
2019-02-09T08:13:04.084Z,99702.27
2019-02-09T08:15:53.316Z,99716.22
2019-02-09T08:18:35.095Z,99743.61
2019-02-09T08:21:24.754Z,99758.33
2019-02-09T08:24:07.871Z,99719.91
2019-02-09T08:26:51.210Z,99747.57
2019-02-09T08:32:28.810Z,99749.39
2019-02-09T08:35:18.534Z,99715.91
2019-02-09T08:38:00.485Z,99758.91
2019-02-09T08:40:50.151Z,99764.13
2019-02-09T08:43:31.797Z,99760.09
2019-02-09T08:46:40.901Z,99735.02
2019-02-09T08:49:23.040Z,99741.50
2019-02-09T08:52:12.478Z,99751.86
2019-02-09T08:54:54.195Z,99723.95
2019-02-09T08:57:24.452Z,99761.32
2019-02-09T09:00:16.414Z,99766.00
2019-02-09T09:06:22.446Z,99729.14
2019-02-09T09:12:17.899Z,99744.39
2019-02-09T09:15:11.387Z,99769.05
2019-02-09T09:17:53.393Z,99737.03
2019-02-09T09:23:47.893Z,99729.86
2019-02-09T09:29:38.156Z,99743.00
2019-02-09T09:32:28.764Z,99742.64
2019-02-09T09:35:11.733Z,99778.23
2019-02-09T09:41:01.836Z,99776.97
2019-02-09T09:43:51.133Z,99740.63
2019-02-09T09:46:32.839Z,99753.52
2019-02-09T09:49:24.917Z,99754.30
2019-02-09T09:52:11.001Z,99788.66
2019-02-09T09:58:09.186Z,99754.60
2019-02-09T10:01:02.700Z,99762.09
2019-02-09T10:03:48.690Z,99766.45
2019-02-09T10:06:43.037Z,99769.28
2019-02-09T10:09:29.866Z,99788.17
2019-02-09T10:12:23.433Z,99800.80
2019-02-09T10:15:10.172Z,99781.70
2019-02-09T10:28:22.331Z,99817.95
2019-02-09T10:31:15.983Z,99788.32
2019-02-09T10:34:09.176Z,99791.25
2019-02-09T10:36:57.414Z,99831.71
2019-02-09T10:39:44.143Z,99817.67
2019-02-09T10:46:04.986Z,99802.29
2019-02-09T10:48:51.172Z,99828.76
2019-02-09T10:51:37.939Z,99827.00
2019-02-09T10:57:41.861Z,99802.73
2019-02-09T11:10:50.071Z,99790.88
2019-02-09T11:13:37.332Z,99783.16
2019-02-09T11:19:58.686Z,99819.75
2019-02-09T11:22:51.120Z,99780.87
2019-02-09T11:25:40.306Z,99813.38
2019-02-09T11:28:26.907Z,99787.64
2019-02-09T11:31:13.673Z,99764.59
2019-02-09T11:33:50.700Z,99804.36
2019-02-09T11:36:44.242Z,99773.14
2019-02-09T11:39:30.674Z,99767.75
2019-02-09T11:42:16.563Z,99795.30
2019-02-09T11:48:12.993Z,99770.83
2019-02-09T11:51:22.035Z,99762.89
2019-02-09T11:54:04.063Z,99758.63
2019-02-09T11:56:53.355Z,99794.95
2019-02-09T11:59:40.146Z,99776.06
2019-02-09T12:05:20.501Z,99788.52
2019-02-09T12:08:09.842Z,99773.02
2019-02-09T12:10:52.009Z,99803.05
2019-02-09T12:13:41.345Z,99767.17
2019-02-09T12:16:11.647Z,99805.91
2019-02-09T12:19:00.968Z,99774.88
2019-02-09T12:21:43.336Z,99771.87
2019-02-09T12:24:29.631Z,99809.05
2019-02-09T12:27:12.173Z,99776.73
2019-02-09T12:33:02.199Z,99803.39
2019-02-09T12:35:51.522Z,99779.99
2019-02-09T12:38:33.222Z,99800.70
2019-02-09T12:41:22.600Z,99789.66
2019-02-09T12:43:52.863Z,99799.69
2019-02-09T12:46:42.187Z,99763.53
2019-02-09T12:49:25.957Z,99764.94
2019-02-09T12:52:15.571Z,99761.25
2019-02-09T12:54:47.111Z,99787.33
2019-02-09T13:00:39.405Z,99752.38
2019-02-09T13:03:31.365Z,99794.13
2019-02-09T13:06:12.400Z,99807.66
2019-02-09T13:09:01.654Z,99787.61
2019-02-09T13:11:31.980Z,99785.91
2019-02-09T13:14:21.583Z,99752.32
2019-02-09T13:17:04.460Z,99750.84
2019-02-09T13:22:43.425Z,99794.36
2019-02-09T13:25:25.211Z,99793.83
2019-02-09T13:28:07.767Z,99756.59
2019-02-09T13:30:51.462Z,99782.66
2019-02-09T13:33:40.820Z,99742.08
2019-02-09T13:36:23.234Z,99742.84
2019-02-09T13:41:48.240Z,99785.30
2019-02-09T13:44:38.344Z,99787.34
2019-02-09T13:47:28.663Z,99779.63
2019-02-09T13:50:11.324Z,99758.50
2019-02-09T13:55:48.152Z,99797.09
2019-02-09T13:58:38.643Z,99802.84
2019-02-09T14:01:21.413Z,99782.97
2019-02-09T14:04:11.099Z,99823.59
2019-02-09T14:06:53.019Z,99844.03
2019-02-09T14:09:42.707Z,99826.11
2019-02-09T14:12:24.855Z,99831.66
2019-02-09T14:18:12.209Z,99860.20
2019-02-09T14:20:54.715Z,99910.19
2019-02-09T14:23:44.319Z,99900.44
2019-02-09T14:26:26.603Z,99878.08
2019-02-09T14:29:10.766Z,99892.87
2019-02-09T14:31:41.091Z,99924.23
2019-02-09T14:37:19.542Z,99920.97
2019-02-09T14:39:50.538Z,99925.83
2019-02-09T14:42:21.402Z,99925.11
2019-02-09T14:48:04.414Z,99913.77
2019-02-09T14:50:54.038Z,99889.85
2019-02-09T14:53:37.416Z,99933.09
2019-02-09T14:56:27.136Z,99932.26
2019-02-09T14:59:09.406Z,99942.74
2019-02-09T15:01:59.199Z,99935.48
2019-02-09T15:04:41.877Z,99923.61
2019-02-09T15:07:31.350Z,99936.32
2019-02-09T15:10:16.511Z,99917.59
2019-02-09T15:13:07.377Z,99913.67
2019-02-09T15:15:51.637Z,99921.63
2019-02-09T15:25:02.156Z,99914.87
2019-02-09T15:30:36.126Z,99965.32
2019-02-09T15:36:28.087Z,99911.46
2019-02-09T15:39:17.671Z,99944.26
2019-02-09T15:42:00.287Z,99919.73
2019-02-09T15:44:49.920Z,99928.78
2019-02-09T15:47:34.043Z,99966.53
2019-02-09T15:53:24.382Z,99935.73
2019-02-09T16:04:21.584Z,99970.91
2019-02-09T16:07:11.281Z,99949.36
2019-02-09T16:10:20.545Z,99951.00
2019-02-09T16:12:51.131Z,99980.84
2019-02-09T16:15:24.256Z,99990.50
2019-02-09T16:18:14.325Z,99989.80
2019-02-09T16:24:05.296Z,99969.38
2019-02-09T16:26:48.352Z,99980.09
2019-02-09T16:32:48.406Z,99996.66
2019-02-09T16:38:39.614Z,100005.65
2019-02-09T16:41:28.951Z,100009.98
2019-02-09T16:44:11.765Z,100008.05
2019-02-09T16:47:03.404Z,100013.83
2019-02-09T16:49:45.466Z,100024.77
2019-02-09T16:52:34.836Z,100033.20
2019-02-09T16:55:17.462Z,100028.59
2019-02-09T16:58:07.236Z,100045.00
2019-02-09T17:00:49.672Z,100079.41
2019-02-09T17:06:40.438Z,100060.34
2019-02-09T17:09:30.254Z,100048.25
2019-02-09T17:12:12.244Z,100089.30
2019-02-09T17:15:01.915Z,100092.74
2019-02-09T17:17:43.539Z,100101.47
2019-02-09T17:20:35.230Z,100071.45
2019-02-09T17:23:17.543Z,100099.09
2019-02-09T17:26:07.185Z,100078.25
2019-02-09T17:28:50.120Z,100116.47
2019-02-09T17:31:39.779Z,100114.46
2019-02-09T17:34:23.837Z,100091.08
2019-02-09T17:37:13.615Z,100092.97
2019-02-09T17:39:55.267Z,100128.16
2019-02-09T17:42:25.572Z,100133.80
2019-02-09T17:45:18.224Z,100109.83
2019-02-09T17:48:07.916Z,100112.27
2019-02-09T17:50:49.845Z,100140.16
2019-02-09T17:53:39.691Z,100116.27
2019-02-09T17:56:22.236Z,100154.11
2019-02-09T18:01:59.731Z,100153.53
2019-02-09T18:07:36.942Z,100109.81
2019-02-09T18:13:14.540Z,100174.56
2019-02-09T18:16:05.302Z,100160.70
2019-02-09T18:18:47.257Z,100148.50
2019-02-09T18:21:36.907Z,100135.95
2019-02-09T18:24:19.787Z,100134.94
2019-02-09T18:27:09.442Z,100145.56
2019-02-09T18:29:53.138Z,100130.44
2019-02-09T18:32:42.790Z,100141.53
2019-02-09T18:35:25.187Z,100132.33
2019-02-09T18:38:14.813Z,100136.72
2019-02-09T18:40:56.870Z,100135.14
2019-02-09T18:46:33.994Z,100149.64
2019-02-09T18:49:23.580Z,100173.20
2019-02-09T18:52:06.242Z,100165.44
2019-02-09T18:54:55.674Z,100173.80
2019-02-09T19:00:37.094Z,100157.58
2019-02-09T19:03:26.745Z,100159.78
2019-02-09T19:06:08.653Z,100163.01
2019-02-09T19:08:58.066Z,100189.61
2019-02-09T19:11:40.161Z,100161.54
2019-02-09T19:14:32.000Z,100165.73
2019-02-09T19:17:15.673Z,100161.84
2019-02-09T19:19:58.726Z,100201.05
2019-02-09T19:31:20.012Z,100167.23
2019-02-09T19:34:09.674Z,100172.73
2019-02-09T19:36:59.166Z,100171.58
2019-02-09T19:39:40.881Z,100170.23
2019-02-09T19:42:23.396Z,100177.34
2019-02-09T19:48:16.990Z,100194.69
2019-02-09T19:51:06.361Z,100194.22
2019-02-09T19:53:48.924Z,100230.20
2019-02-09T19:56:38.249Z,100227.92
2019-02-09T19:59:20.390Z,100230.02
2019-02-09T20:02:23.294Z,100238.20
2019-02-09T20:04:53.780Z,100210.91
2019-02-09T20:07:43.089Z,100217.61
2019-02-09T20:10:26.674Z,100211.41
2019-02-09T20:16:19.475Z,100261.86
2019-02-09T20:19:09.177Z,100235.47
2019-02-09T20:21:39.516Z,100263.72
2019-02-09T20:24:28.867Z,100237.59
2019-02-09T20:27:12.972Z,100241.30
2019-02-09T20:30:02.319Z,100241.09
2019-02-09T20:32:44.308Z,100276.27
2019-02-09T20:35:33.659Z,100274.98
2019-02-09T20:38:15.569Z,100280.55
2019-02-09T20:41:07.570Z,100247.42
2019-02-09T20:43:50.188Z,100288.13
2019-02-09T20:46:39.833Z,100294.58
2019-02-09T20:49:22.762Z,100290.34
2019-02-09T20:52:14.396Z,100260.08
2019-02-09T20:54:56.234Z,100294.70
2019-02-09T21:00:46.809Z,100264.63
2019-02-09T21:03:36.436Z,100283.25
2019-02-09T21:06:19.672Z,100303.54
2019-02-09T21:09:09.612Z,100308.47
2019-02-09T21:11:52.026Z,100276.80
2019-02-09T21:14:41.650Z,100304.73
2019-02-09T21:17:23.856Z,100269.14
2019-02-09T21:20:15.651Z,100303.34
2019-02-09T21:22:58.356Z,100309.75
2019-02-09T21:26:07.472Z,100273.42
2019-02-09T21:28:49.650Z,100273.36
2019-02-09T21:31:39.289Z,100278.51
2019-02-09T21:34:22.142Z,100277.77
2019-02-09T21:37:11.743Z,100324.55
2019-02-09T21:39:54.323Z,100285.20
2019-02-09T21:45:47.434Z,100294.36
2019-02-09T21:51:39.908Z,100328.47
2019-02-09T21:57:30.300Z,100291.37
2019-02-09T22:00:25.181Z,100298.20
2019-02-09T22:03:08.228Z,100330.45
2019-02-09T22:05:57.595Z,100325.41
2019-02-09T22:08:39.854Z,100321.14
2019-02-09T22:11:29.676Z,100319.29
2019-02-09T22:14:11.978Z,100295.88
2019-02-09T22:17:03.457Z,100298.60
2019-02-09T22:19:45.755Z,100321.78
2019-02-09T22:22:35.319Z,100299.72
2019-02-09T22:25:18.137Z,100328.67
2019-02-09T22:28:07.743Z,100301.67
2019-02-09T22:30:52.353Z,100314.00
2019-02-09T22:33:41.775Z,100330.24
2019-02-09T22:36:26.397Z,100295.58
2019-02-09T22:38:56.652Z,100329.09
2019-02-09T22:44:41.008Z,100301.21
2019-02-09T22:47:23.009Z,100327.41
2019-02-09T22:50:33.498Z,100291.72
2019-02-09T22:53:15.329Z,100302.20
2019-02-09T22:59:07.142Z,100327.38
2019-02-09T23:01:56.946Z,100293.77
2019-02-09T23:05:00.449Z,100301.27
2019-02-09T23:10:50.920Z,100327.00
2019-02-09T23:13:40.558Z,100332.89
2019-02-09T23:16:22.836Z,100309.94
2019-02-09T23:22:17.088Z,100338.87
2019-02-09T23:25:07.243Z,100338.20
2019-02-09T23:27:49.312Z,100313.06
2019-02-09T23:30:31.483Z,100309.74
2019-02-09T23:33:23.012Z,100309.18
2019-02-09T23:36:05.188Z,100339.04
2019-02-09T23:38:47.157Z,100343.45
2019-02-09T23:41:36.685Z,100312.02
2019-02-09T23:44:07.239Z,100337.20
2019-02-09T23:49:58.890Z,100312.28
2019-02-09T23:52:48.557Z,100344.02
2019-02-09T23:55:31.054Z,100346.59
2019-02-09T23:58:21.599Z,100346.72
